sensor_id;sensor_type;location;lat;lon;timestamp;pressure;altitude;pressure_sealevel;temperature;humidity
13732;BME280;6937;56.096;12.664;2023-03-13T00:00:51;99677.00;;;1.84;100.00
13732;BME280;6937;56.096;12.664;2023-03-13T00:03:18;99677.66;;;1.88;100.00
13732;BME280;6937;56.096;12.664;2023-03-13T00:05:43;99670.03;;;1.83;100.00
13732;BME280;6937;56.096;12.664;2023-03-13T00:08:09;99669.00;;;1.86;100.00
13732;BME280;6937;56.096;12.664;2023-03-13T00:10:38;99656.69;;;1.86;100.00
13732;BME280;6937;56.096;12.664;2023-03-13T00:13:05;99663.50;;;1.90;100.00
13732;BME280;6937;56.096;12.664;2023-03-13T00:15:31;99659.84;;;1.93;100.00
13732;BME280;6937;56.096;12.664;2023-03-13T00:17:56;99655.19;;;1.98;100.00
13732;BME280;6937;56.096;12.664;2023-03-13T00:20:22;99633.94;;;2.01;100.00
13732;BME280;6937;56.096;12.664;2023-03-13T00:22:47;99636.38;;;2.04;100.00
13732;BME280;6937;56.096;12.664;2023-03-13T00:25:12;99642.25;;;2.09;100.00
13732;BME280;6937;56.096;12.664;2023-03-13T00:27:38;99633.41;;;2.10;100.00
13732;BME280;6937;56.096;12.664;2023-03-13T00:30:03;99627.97;;;2.13;100.00
13732;BME280;6937;56.096;12.664;2023-03-13T00:32:29;99627.69;;;2.18;100.00
13732;BME280;6937;56.096;12.664;2023-03-13T00:34:54;99629.22;;;2.22;100.00
13732;BME280;6937;56.096;12.664;2023-03-13T00:37:20;99624.75;;;2.24;100.00
13732;BME280;6937;56.096;12.664;2023-03-13T00:39:45;99630.69;;;2.27;100.00
13732;BME280;6937;56.096;12.664;2023-03-13T00:42:10;99615.47;;;2.32;100.00
13732;BME280;6937;56.096;12.664;2023-03-13T00:44:36;99608.91;;;2.39;100.00
13732;BME280;6937;56.096;12.664;2023-03-13T00:47:01;99613.81;;;2.46;100.00
13732;BME280;6937;56.096;12.664;2023-03-13T00:49:26;99607.50;;;2.48;100.00
13732;BME280;6937;56.096;12.664;2023-03-13T00:51:52;99603.94;;;2.49;100.00
13732;BME280;6937;56.096;12.664;2023-03-13T00:54:17;99596.63;;;2.54;100.00
13732;BME280;6937;56.096;12.664;2023-03-13T00:56:42;99582.22;;;2.60;100.00
13732;BME280;6937;56.096;12.664;2023-03-13T00:59:08;99580.25;;;2.63;100.00
13732;BME280;6937;56.096;12.664;2023-03-13T01:01:34;99574.69;;;2.68;100.00
13732;BME280;6937;56.096;12.664;2023-03-13T01:04:08;99574.44;;;2.72;100.00
13732;BME280;6937;56.096;12.664;2023-03-13T01:06:36;99568.31;;;2.72;100.00
13732;BME280;6937;56.096;12.664;2023-03-13T01:09:04;99572.09;;;2.82;100.00
13732;BME280;6937;56.096;12.664;2023-03-13T01:11:33;99562.19;;;2.85;100.00
13732;BME280;6937;56.096;12.664;2023-03-13T01:14:01;99561.94;;;2.90;100.00
13732;BME280;6937;56.096;12.664;2023-03-13T01:16:29;99564.38;;;2.93;100.00
13732;BME280;6937;56.096;12.664;2023-03-13T01:18:58;99558.84;;;2.98;100.00
13732;BME280;6937;56.096;12.664;2023-03-13T01:21:24;99563.84;;;3.02;100.00
13732;BME280;6937;56.096;12.664;2023-03-13T01:23:51;99558.94;;;3.10;100.00
13732;BME280;6937;56.096;12.664;2023-03-13T01:26:18;99553.47;;;3.13;100.00
13732;BME280;6937;56.096;12.664;2023-03-13T01:28:44;99558.56;;;3.16;100.00
13732;BME280;6937;56.096;12.664;2023-03-13T01:31:16;99542.72;;;3.16;100.00
13732;BME280;6937;56.096;12.664;2023-03-13T01:33:43;99548.56;;;3.21;100.00
13732;BME280;6937;56.096;12.664;2023-03-13T01:36:10;99551.75;;;3.26;100.00
13732;BME280;6937;56.096;12.664;2023-03-13T01:38:36;99537.44;;;3.30;100.00
13732;BME280;6937;56.096;12.664;2023-03-13T01:41:02;99544.13;;;3.36;100.00
13732;BME280;6937;56.096;12.664;2023-03-13T01:43:34;99549.13;;;3.40;100.00
13732;BME280;6937;56.096;12.664;2023-03-13T01:51:07;99551.28;;;3.48;100.00
13732;BME280;6937;56.096;12.664;2023-03-13T01:53:36;99560.81;;;3.51;100.00
13732;BME280;6937;56.096;12.664;2023-03-13T01:56:05;99545.69;;;3.53;100.00
13732;BME280;6937;56.096;12.664;2023-03-13T01:58:32;99541.19;;;3.55;100.00
13732;BME280;6937;56.096;12.664;2023-03-13T02:00:58;99532.22;;;3.57;100.00
13732;BME280;6937;56.096;12.664;2023-03-13T02:03:25;99527.78;;;3.58;100.00
13732;BME280;6937;56.096;12.664;2023-03-13T02:05:52;99538.06;;;3.62;100.00
13732;BME280;6937;56.096;12.664;2023-03-13T02:08:25;99535.22;;;3.65;100.00
13732;BME280;6937;56.096;12.664;2023-03-13T02:11:03;99520.03;;;3.69;100.00
13732;BME280;6937;56.096;12.664;2023-03-13T02:13:31;99521.53;;;3.73;100.00
13732;BME280;6937;56.096;12.664;2023-03-13T02:15:57;99520.38;;;3.77;100.00
13732;BME280;6937;56.096;12.664;2023-03-13T02:18:23;99526.53;;;3.77;100.00
13732;BME280;6937;56.096;12.664;2023-03-13T02:20:52;99525.09;;;3.86;100.00
13732;BME280;6937;56.096;12.664;2023-03-13T02:23:27;99526.75;;;3.87;100.00
13732;BME280;6937;56.096;12.664;2023-03-13T02:25:55;99521.28;;;3.90;100.00
13732;BME280;6937;56.096;12.664;2023-03-13T02:28:30;99521.75;;;3.97;100.00
13732;BME280;6937;56.096;12.664;2023-03-13T02:30:58;99525.13;;;3.99;100.00
13732;BME280;6937;56.096;12.664;2023-03-13T02:33:27;99529.06;;;4.06;100.00
13732;BME280;6937;56.096;12.664;2023-03-13T02:35:53;99534.03;;;4.10;100.00
13732;BME280;6937;56.096;12.664;2023-03-13T02:38:23;99533.75;;;4.15;100.00
13732;BME280;6937;56.096;12.664;2023-03-13T02:40:49;99531.84;;;4.17;100.00
13732;BME280;6937;56.096;12.664;2023-03-13T02:43:35;99507.88;;;4.20;100.00
13732;BME280;6937;56.096;12.664;2023-03-13T02:46:13;99521.81;;;4.22;100.00
13732;BME280;6937;56.096;12.664;2023-03-13T02:48:45;99512.75;;;4.26;100.00
13732;BME280;6937;56.096;12.664;2023-03-13T02:53:59;99500.06;;;4.31;100.00
13732;BME280;6937;56.096;12.664;2023-03-13T02:56:26;99507.88;;;4.32;100.00
13732;BME280;6937;56.096;12.664;2023-03-13T02:58:53;99517.41;;;4.35;100.00
13732;BME280;6937;56.096;12.664;2023-03-13T03:01:19;99509.38;;;4.36;100.00
13732;BME280;6937;56.096;12.664;2023-03-13T03:03:44;99510.31;;;4.35;100.00
13732;BME280;6937;56.096;12.664;2023-03-13T03:06:09;99507.56;;;4.37;100.00
13732;BME280;6937;56.096;12.664;2023-03-13T03:08:35;99510.94;;;4.39;100.00
13732;BME280;6937;56.096;12.664;2023-03-13T03:11:00;99503.88;;;4.39;100.00
13732;BME280;6937;56.096;12.664;2023-03-13T03:13:27;99501.88;;;4.43;100.00
13732;BME280;6937;56.096;12.664;2023-03-13T03:15:53;99504.22;;;4.48;100.00
13732;BME280;6937;56.096;12.664;2023-03-13T03:18:18;99502.09;;;4.53;100.00
13732;BME280;6937;56.096;12.664;2023-03-13T03:20:44;99498.41;;;4.55;100.00
13732;BME280;6937;56.096;12.664;2023-03-13T03:23:09;99495.44;;;4.60;100.00
13732;BME280;6937;56.096;12.664;2023-03-13T03:25:34;99493.53;;;4.62;100.00
13732;BME280;6937;56.096;12.664;2023-03-13T03:28:00;99495.13;;;4.64;100.00
13732;BME280;6937;56.096;12.664;2023-03-13T03:30:25;99500.00;;;4.70;100.00
13732;BME280;6937;56.096;12.664;2023-03-13T03:32:51;99501.50;;;4.74;100.00
13732;BME280;6937;56.096;12.664;2023-03-13T03:35:16;99484.44;;;4.78;100.00
13732;BME280;6937;56.096;12.664;2023-03-13T03:37:42;99492.94;;;4.83;100.00
13732;BME280;6937;56.096;12.664;2023-03-13T03:40:07;99475.75;;;4.89;100.00
13732;BME280;6937;56.096;12.664;2023-03-13T03:42:34;99487.81;;;4.93;100.00
13732;BME280;6937;56.096;12.664;2023-03-13T03:44:59;99486.66;;;4.97;100.00
13732;BME280;6937;56.096;12.664;2023-03-13T03:47:24;99484.66;;;5.01;100.00
13732;BME280;6937;56.096;12.664;2023-03-13T03:49:50;99479.13;;;5.04;100.00
13732;BME280;6937;56.096;12.664;2023-03-13T03:52:15;99476.78;;;5.12;100.00
13732;BME280;6937;56.096;12.664;2023-03-13T03:54:41;99476.56;;;5.15;100.00
13732;BME280;6937;56.096;12.664;2023-03-13T03:57:06;99493.00;;;5.20;100.00
13732;BME280;6937;56.096;12.664;2023-03-13T03:59:32;99496.38;;;5.22;100.00
13732;BME280;6937;56.096;12.664;2023-03-13T04:01:57;99505.91;;;5.24;100.00
13732;BME280;6937;56.096;12.664;2023-03-13T04:04:23;99512.78;;;5.27;100.00
13732;BME280;6937;56.096;12.664;2023-03-13T04:06:48;99514.38;;;5.29;100.00
13732;BME280;6937;56.096;12.664;2023-03-13T04:09:13;99506.44;;;5.29;100.00
13732;BME280;6937;56.096;12.664;2023-03-13T04:11:39;99500.81;;;5.34;100.00
13732;BME280;6937;56.096;12.664;2023-03-13T04:14:04;99497.22;;;5.35;100.00
13732;BME280;6937;56.096;12.664;2023-03-13T04:16:30;99504.94;;;5.38;100.00
13732;BME280;6937;56.096;12.664;2023-03-13T04:18:55;99500.25;;;5.42;100.00
13732;BME280;6937;56.096;12.664;2023-03-13T04:21:20;99500.78;;;5.47;100.00
13732;BME280;6937;56.096;12.664;2023-03-13T04:23:46;99507.56;;;5.51;100.00
13732;BME280;6937;56.096;12.664;2023-03-13T04:26:11;99483.72;;;5.51;100.00
13732;BME280;6937;56.096;12.664;2023-03-13T04:28:36;99481.78;;;5.53;100.00
13732;BME280;6937;56.096;12.664;2023-03-13T04:31:02;99469.50;;;5.52;100.00
13732;BME280;6937;56.096;12.664;2023-03-13T04:33:28;99463.16;;;5.54;100.00
13732;BME280;6937;56.096;12.664;2023-03-13T04:35:53;99455.91;;;5.56;100.00
13732;BME280;6937;56.096;12.664;2023-03-13T04:38:19;99464.94;;;5.54;100.00
13732;BME280;6937;56.096;12.664;2023-03-13T04:40:45;99450.50;;;5.58;100.00
13732;BME280;6937;56.096;12.664;2023-03-13T04:43:10;99451.47;;;5.57;100.00
13732;BME280;6937;56.096;12.664;2023-03-13T04:45:36;99457.50;;;5.59;100.00
13732;BME280;6937;56.096;12.664;2023-03-13T04:48:01;99464.06;;;5.66;100.00
13732;BME280;6937;56.096;12.664;2023-03-13T04:50:26;99471.88;;;5.67;100.00
13732;BME280;6937;56.096;12.664;2023-03-13T04:52:52;99467.09;;;5.72;100.00
13732;BME280;6937;56.096;12.664;2023-03-13T04:55:17;99465.16;;;5.74;100.00
13732;BME280;6937;56.096;12.664;2023-03-13T04:57:42;99478.31;;;5.76;100.00
13732;BME280;6937;56.096;12.664;2023-03-13T05:00:08;99482.88;;;5.74;100.00
13732;BME280;6937;56.096;12.664;2023-03-13T05:02:35;99482.25;;;5.70;100.00
13732;BME280;6937;56.096;12.664;2023-03-13T05:05:01;99478.75;;;5.70;100.00
13732;BME280;6937;56.096;12.664;2023-03-13T05:07:26;99484.81;;;5.72;100.00
13732;BME280;6937;56.096;12.664;2023-03-13T05:09:51;99489.16;;;5.73;100.00
13732;BME280;6937;56.096;12.664;2023-03-13T05:12:17;99491.06;;;5.71;100.00
13732;BME280;6937;56.096;12.664;2023-03-13T05:14:42;99490.97;;;5.72;100.00
13732;BME280;6937;56.096;12.664;2023-03-13T05:17:07;99494.09;;;5.77;100.00
13732;BME280;6937;56.096;12.664;2023-03-13T05:19:35;99491.13;;;5.82;100.00
13732;BME280;6937;56.096;12.664;2023-03-13T05:22:00;99499.81;;;5.84;100.00
13732;BME280;6937;56.096;12.664;2023-03-13T05:24:25;99492.31;;;5.78;100.00
13732;BME280;6937;56.096;12.664;2023-03-13T05:26:51;99492.31;;;5.78;100.00
13732;BME280;6937;56.096;12.664;2023-03-13T05:29:16;99499.91;;;5.82;100.00
13732;BME280;6937;56.096;12.664;2023-03-13T05:31:42;99504.16;;;5.85;100.00
13732;BME280;6937;56.096;12.664;2023-03-13T05:34:07;99521.69;;;5.88;100.00
13732;BME280;6937;56.096;12.664;2023-03-13T05:36:32;99528.66;;;5.89;100.00
13732;BME280;6937;56.096;12.664;2023-03-13T05:38:58;99530.34;;;5.90;100.00
13732;BME280;6937;56.096;12.664;2023-03-13T05:41:23;99528.47;;;5.92;100.00
13732;BME280;6937;56.096;12.664;2023-03-13T05:43:48;99531.13;;;5.92;100.00
13732;BME280;6937;56.096;12.664;2023-03-13T05:46:14;99538.72;;;5.96;100.00
13732;BME280;6937;56.096;12.664;2023-03-13T05:48:39;99536.72;;;6.00;100.00
13732;BME280;6937;56.096;12.664;2023-03-13T05:51:05;99546.34;;;6.01;100.00
13732;BME280;6937;56.096;12.664;2023-03-13T05:53:30;99559.59;;;6.01;100.00
13732;BME280;6937;56.096;12.664;2023-03-13T05:55:55;99563.09;;;6.01;100.00
13732;BME280;6937;56.096;12.664;2023-03-13T05:58:21;99577.22;;;6.02;100.00
13732;BME280;6937;56.096;12.664;2023-03-13T06:00:46;99570.81;;;6.04;100.00
13732;BME280;6937;56.096;12.664;2023-03-13T06:03:13;99570.72;;;6.06;100.00
13732;BME280;6937;56.096;12.664;2023-03-13T06:05:38;99585.69;;;6.07;100.00
13732;BME280;6937;56.096;12.664;2023-03-13T06:08:04;99590.13;;;6.06;100.00
13732;BME280;6937;56.096;12.664;2023-03-13T06:10:29;99607.00;;;6.05;100.00
13732;BME280;6937;56.096;12.664;2023-03-13T06:12:55;99607.00;;;6.05;100.00
13732;BME280;6937;56.096;12.664;2023-03-13T06:15:21;99603.63;;;6.03;100.00
13732;BME280;6937;56.096;12.664;2023-03-13T06:17:46;99615.06;;;6.04;100.00
13732;BME280;6937;56.096;12.664;2023-03-13T06:20:12;99612.41;;;6.04;100.00
13732;BME280;6937;56.096;12.664;2023-03-13T06:22:37;99621.97;;;6.06;100.00
13732;BME280;6937;56.096;12.664;2023-03-13T06:25:03;99622.69;;;6.08;100.00
13732;BME280;6937;56.096;12.664;2023-03-13T06:27:28;99620.16;;;6.07;100.00
13732;BME280;6937;56.096;12.664;2023-03-13T06:29:54;99626.31;;;6.07;100.00
13732;BME280;6937;56.096;12.664;2023-03-13T06:32:19;99624.63;;;6.06;100.00
13732;BME280;6937;56.096;12.664;2023-03-13T06:34:44;99630.03;;;6.05;100.00
13732;BME280;6937;56.096;12.664;2023-03-13T06:37:10;99635.31;;;6.05;100.00
13732;BME280;6937;56.096;12.664;2023-03-13T06:39:36;99630.88;;;6.05;100.00
13732;BME280;6937;56.096;12.664;2023-03-13T06:42:01;99634.28;;;6.07;100.00
13732;BME280;6937;56.096;12.664;2023-03-13T06:44:27;99635.94;;;6.08;100.00
13732;BME280;6937;56.096;12.664;2023-03-13T06:46:52;99637.75;;;6.08;100.00
13732;BME280;6937;56.096;12.664;2023-03-13T06:49:17;99640.41;;;6.08;100.00
13732;BME280;6937;56.096;12.664;2023-03-13T06:51:43;99652.09;;;6.05;100.00
13732;BME280;6937;56.096;12.664;2023-03-13T06:54:08;99650.44;;;5.92;100.00
13732;BME280;6937;56.096;12.664;2023-03-13T06:56:33;99646.16;;;5.89;100.00
13732;BME280;6937;56.096;12.664;2023-03-13T06:58:59;99647.97;;;5.89;100.00
13732;BME280;6937;56.096;12.664;2023-03-13T07:01:24;99643.75;;;5.86;100.00
13732;BME280;6937;56.096;12.664;2023-03-13T07:03:49;99657.84;;;5.87;100.00
13732;BME280;6937;56.096;12.664;2023-03-13T07:06:15;99661.34;;;5.87;100.00
13732;BME280;6937;56.096;12.664;2023-03-13T07:08:40;99665.59;;;5.90;100.00
13732;BME280;6937;56.096;12.664;2023-03-13T07:11:09;99661.97;;;5.91;100.00
13732;BME280;6937;56.096;12.664;2023-03-13T07:13:35;99675.34;;;5.89;100.00
13732;BME280;6937;56.096;12.664;2023-03-13T07:16:03;99675.34;;;5.89;100.00
13732;BME280;6937;56.096;12.664;2023-03-13T07:18:29;99683.19;;;5.91;100.00
13732;BME280;6937;56.096;12.664;2023-03-13T07:20:56;99680.63;;;5.89;100.00
13732;BME280;6937;56.096;12.664;2023-03-13T07:23:23;99677.88;;;5.91;100.00
13732;BME280;6937;56.096;12.664;2023-03-13T07:25:59;99679.69;;;5.90;100.00
13732;BME280;6937;56.096;12.664;2023-03-13T07:28:26;99667.50;;;5.88;100.00
13732;BME280;6937;56.096;12.664;2023-03-13T07:30:52;99674.59;;;5.87;100.00
13732;BME280;6937;56.096;12.664;2023-03-13T07:33:17;99706.22;;;5.90;100.00
13732;BME280;6937;56.096;12.664;2023-03-13T07:35:48;99699.31;;;5.88;100.00
13732;BME280;6937;56.096;12.664;2023-03-13T07:38:14;99715.22;;;5.88;100.00
13732;BME280;6937;56.096;12.664;2023-03-13T07:40:39;99717.97;;;5.86;100.00
13732;BME280;6937;56.096;12.664;2023-03-13T07:43:11;99710.94;;;5.85;100.00
13732;BME280;6937;56.096;12.664;2023-03-13T07:45:36;99711.78;;;5.85;100.00
13732;BME280;6937;56.096;12.664;2023-03-13T07:48:01;99706.63;;;5.84;100.00
13732;BME280;6937;56.096;12.664;2023-03-13T07:50:27;99706.72;;;5.82;100.00
13732;BME280;6937;56.096;12.664;2023-03-13T07:52:52;99694.41;;;5.81;100.00
13732;BME280;6937;56.096;12.664;2023-03-13T07:55:17;99688.28;;;5.81;100.00
13732;BME280;6937;56.096;12.664;2023-03-13T07:57:43;99689.72;;;5.85;100.00
13732;BME280;6937;56.096;12.664;2023-03-13T08:00:08;99695.88;;;5.85;100.00
13732;BME280;6937;56.096;12.664;2023-03-13T08:02:40;99687.88;;;5.87;100.00
13732;BME280;6937;56.096;12.664;2023-03-13T08:05:06;99696.53;;;5.89;100.00
13732;BME280;6937;56.096;12.664;2023-03-13T08:07:31;99699.97;;;5.91;100.00
13732;BME280;6937;56.096;12.664;2023-03-13T08:09:56;99680.63;;;5.89;100.00
13732;BME280;6937;56.096;12.664;2023-03-13T08:12:22;99684.91;;;5.92;100.00
13732;BME280;6937;56.096;12.664;2023-03-13T08:14:47;99719.25;;;5.93;100.00
13732;BME280;6937;56.096;12.664;2023-03-13T08:17:12;99711.19;;;5.95;100.00
13732;BME280;6937;56.096;12.664;2023-03-13T08:19:38;99710.34;;;5.94;100.00
13732;BME280;6937;56.096;12.664;2023-03-13T08:22:03;99696.22;;;5.94;100.00
13732;BME280;6937;56.096;12.664;2023-03-13T08:24:29;99697.72;;;5.98;100.00
13732;BME280;6937;56.096;12.664;2023-03-13T08:26:54;99684.53;;;5.96;100.00
13732;BME280;6937;56.096;12.664;2023-03-13T08:29:19;99671.19;;;5.98;100.00
13732;BME280;6937;56.096;12.664;2023-03-13T08:31:47;99657.72;;;6.01;100.00
13732;BME280;6937;56.096;12.664;2023-03-13T08:34:14;99659.41;;;6.02;100.00
13732;BME280;6937;56.096;12.664;2023-03-13T08:36:40;99638.94;;;6.04;100.00
13732;BME280;6937;56.096;12.664;2023-03-13T08:39:17;99637.97;;;6.05;100.00
13732;BME280;6937;56.096;12.664;2023-03-13T08:41:43;99631.63;;;6.07;100.00
13732;BME280;6937;56.096;12.664;2023-03-13T08:44:14;99608.47;;;6.09;100.00
13732;BME280;6937;56.096;12.664;2023-03-13T08:46:39;99603.78;;;6.13;100.00
13732;BME280;6937;56.096;12.664;2023-03-13T08:49:06;99567.38;;;6.15;100.00
13732;BME280;6937;56.096;12.664;2023-03-13T08:51:32;99553.91;;;6.18;100.00
13732;BME280;6937;56.096;12.664;2023-03-13T08:53:58;99551.28;;;6.18;100.00
13732;BME280;6937;56.096;12.664;2023-03-13T08:56:26;99560.06;;;6.18;100.00
13732;BME280;6937;56.096;12.664;2023-03-13T08:58:54;99544.16;;;6.18;100.00
13732;BME280;6937;56.096;12.664;2023-03-13T09:01:21;99517.50;;;6.20;100.00
13732;BME280;6937;56.096;12.664;2023-03-13T09:03:48;99508.81;;;6.18;100.00
13732;BME280;6937;56.096;12.664;2023-03-13T09:06:13;99501.81;;;6.17;100.00
13732;BME280;6937;56.096;12.664;2023-03-13T09:08:39;99496.63;;;6.15;100.00
13732;BME280;6937;56.096;12.664;2023-03-13T09:11:07;99469.88;;;6.18;100.00
13732;BME280;6937;56.096;12.664;2023-03-13T09:13:35;99469.38;;;6.13;100.00
13732;BME280;6937;56.096;12.664;2023-03-13T09:16:12;99458.03;;;6.11;100.00
13732;BME280;6937;56.096;12.664;2023-03-13T09:18:38;99456.31;;;5.99;100.00
13732;BME280;6937;56.096;12.664;2023-03-13T09:21:13;99416.53;;;5.99;100.00
13732;BME280;6937;56.096;12.664;2023-03-13T09:23:39;99399.78;;;5.99;100.00
13732;BME280;6937;56.096;12.664;2023-03-13T09:26:04;99380.38;;;5.98;100.00
13732;BME280;6937;56.096;12.664;2023-03-13T09:28:29;99372.41;;;5.98;100.00
13732;BME280;6937;56.096;12.664;2023-03-13T09:31:05;99262.84;;;5.98;100.00
13732;BME280;6937;56.096;12.664;2023-03-13T09:33:31;99245.13;;;5.98;100.00
13732;BME280;6937;56.096;12.664;2023-03-13T09:35:57;99232.81;;;5.97;100.00
13732;BME280;6937;56.096;12.664;2023-03-13T09:38:22;99228.28;;;5.99;100.00
13732;BME280;6937;56.096;12.664;2023-03-13T09:40:49;99215.22;;;5.96;100.00
13732;BME280;6937;56.096;12.664;2023-03-13T09:46:19;99194.84;;;5.97;100.00
13732;BME280;6937;56.096;12.664;2023-03-13T09:48:53;99144.63;;;5.95;100.00
13732;BME280;6937;56.096;12.664;2023-03-13T09:51:34;99132.06;;;5.97;100.00
13732;BME280;6937;56.096;12.664;2023-03-13T09:54:07;99151.38;;;5.99;100.00
13732;BME280;6937;56.096;12.664;2023-03-13T09:56:41;99054.81;;;6.02;100.00
13732;BME280;6937;56.096;12.664;2023-03-13T09:59:33;99035.31;;;6.03;100.00
13732;BME280;6937;56.096;12.664;2023-03-13T10:02:04;98999.84;;;6.04;100.00
13732;BME280;6937;56.096;12.664;2023-03-13T10:04:46;98983.13;;;6.03;100.00
13732;BME280;6937;56.096;12.664;2023-03-13T10:07:14;98974.19;;;6.04;100.00
13732;BME280;6937;56.096;12.664;2023-03-13T10:09:39;98995.38;;;6.04;100.00
13732;BME280;6937;56.096;12.664;2023-03-13T10:17:37;98862.22;;;6.01;100.00
13732;BME280;6937;56.096;12.664;2023-03-13T10:22:51;98867.53;;;6.01;100.00
13732;BME280;6937;56.096;12.664;2023-03-13T10:25:32;98803.06;;;6.00;100.00
13732;BME280;6937;56.096;12.664;2023-03-13T10:27:58;98796.53;;;6.04;100.00
13732;BME280;6937;56.096;12.664;2023-03-13T10:30:34;98795.28;;;6.08;100.00
13732;BME280;6937;56.096;12.664;2023-03-13T10:33:18;98803.84;;;6.12;100.00
13732;BME280;6937;56.096;12.664;2023-03-13T10:35:44;98784.31;;;6.13;100.00
13732;BME280;6937;56.096;12.664;2023-03-13T10:38:12;98794.66;;;6.16;100.00
13732;BME280;6937;56.096;12.664;2023-03-13T10:40:39;98807.63;;;6.19;100.00
13732;BME280;6937;56.096;12.664;2023-03-13T10:43:11;98804.97;;;6.19;100.00
13732;BME280;6937;56.096;12.664;2023-03-13T10:45:37;98778.63;;;6.17;100.00
13732;BME280;6937;56.096;12.664;2023-03-13T10:48:14;98796.22;;;6.18;100.00
13732;BME280;6937;56.096;12.664;2023-03-13T10:50:45;98788.94;;;6.20;100.00
13732;BME280;6937;56.096;12.664;2023-03-13T10:53:24;98774.56;;;6.23;100.00
13732;BME280;6937;56.096;12.664;2023-03-13T10:55:57;98758.53;;;6.24;100.00
13732;BME280;6937;56.096;12.664;2023-03-13T10:58:39;98754.94;;;6.25;100.00
13732;BME280;6937;56.096;12.664;2023-03-13T11:03:41;98762.72;;;6.27;100.00
13732;BME280;6937;56.096;12.664;2023-03-13T11:06:23;98763.72;;;6.26;100.00
13732;BME280;6937;56.096;12.664;2023-03-13T11:08:48;98769.03;;;6.26;100.00
13732;BME280;6937;56.096;12.664;2023-03-13T11:11:18;98795.84;;;6.32;100.00
13732;BME280;6937;56.096;12.664;2023-03-13T11:13:45;98809.69;;;6.36;100.00
13732;BME280;6937;56.096;12.664;2023-03-13T11:16:20;98786.50;;;6.38;100.00
13732;BME280;6937;56.096;12.664;2023-03-13T11:19:11;98808.19;;;6.43;100.00
13732;BME280;6937;56.096;12.664;2023-03-13T11:21:56;98819.75;;;6.42;100.00
13732;BME280;6937;56.096;12.664;2023-03-13T11:27:18;98847.59;;;6.48;100.00
13732;BME280;6937;56.096;12.664;2023-03-13T11:29:58;98837.09;;;6.46;100.00
13732;BME280;6937;56.096;12.664;2023-03-13T11:32:37;98835.88;;;6.50;100.00
13732;BME280;6937;56.096;12.664;2023-03-13T11:37:55;98864.97;;;6.61;100.00
13732;BME280;6937;56.096;12.664;2023-03-13T11:40:30;98874.63;;;6.62;100.00
13732;BME280;6937;56.096;12.664;2023-03-13T11:43:12;98725.44;;;6.68;100.00
13732;BME280;6937;56.096;12.664;2023-03-13T11:50:51;98434.06;;;6.82;100.00
13732;BME280;6937;56.096;12.664;2023-03-13T11:53:55;98415.19;;;6.85;100.00
13732;BME280;6937;56.096;12.664;2023-03-13T11:59:03;98466.59;;;7.20;100.00
13732;BME280;6937;56.096;12.664;2023-03-13T12:01:47;98522.47;;;7.38;100.00
13732;BME280;6937;56.096;12.664;2023-03-13T12:04:24;98594.44;;;7.54;100.00
13732;BME280;6937;56.096;12.664;2023-03-13T12:07:30;98640.44;;;7.64;100.00
13732;BME280;6937;56.096;12.664;2023-03-13T12:10:01;98675.09;;;7.72;100.00
13732;BME280;6937;56.096;12.664;2023-03-13T12:12:50;98726.44;;;7.83;100.00
13732;BME280;6937;56.096;12.664;2023-03-13T12:15:25;98704.28;;;7.92;100.00
13732;BME280;6937;56.096;12.664;2023-03-13T12:26:59;99028.13;;;8.95;100.00
13732;BME280;6937;56.096;12.664;2023-03-13T12:43:32;99239.13;;;9.85;100.00
13732;BME280;6937;56.096;12.664;2023-03-13T13:01:55;99188.22;;;10.43;100.00
13732;BME280;6937;56.096;12.664;2023-03-13T13:04:24;99139.03;;;10.45;100.00
13732;BME280;6937;56.096;12.664;2023-03-13T13:07:06;99102.00;;;10.50;100.00
13732;BME280;6937;56.096;12.664;2023-03-13T13:09:34;99078.81;;;10.51;100.00
13732;BME280;6937;56.096;12.664;2023-03-13T13:12:20;99037.47;;;10.55;100.00
13732;BME280;6937;56.096;12.664;2023-03-13T13:20:25;98885.94;;;10.65;100.00
13732;BME280;6937;56.096;12.664;2023-03-13T13:22:51;98860.13;;;10.74;100.00
13732;BME280;6937;56.096;12.664;2023-03-13T13:32:43;98652.25;;;10.77;100.00
13732;BME280;6937;56.096;12.664;2023-03-13T13:37:40;98557.25;;;10.75;100.00
13732;BME280;6937;56.096;12.664;2023-03-13T13:40:19;98536.22;;;10.80;100.00
13732;BME280;6937;56.096;12.664;2023-03-13T13:47:43;98493.44;;;10.88;100.00
13732;BME280;6937;56.096;12.664;2023-03-13T13:50:21;98465.75;;;10.89;100.00
13732;BME280;6937;56.096;12.664;2023-03-13T13:52:48;98450.38;;;10.91;100.00
13732;BME280;6937;56.096;12.664;2023-03-13T13:55:41;98414.81;;;10.90;100.00
13732;BME280;6937;56.096;12.664;2023-03-13T13:58:19;98384.06;;;10.94;100.00
13732;BME280;6937;56.096;12.664;2023-03-13T14:01:00;98341.75;;;11.06;100.00
13732;BME280;6937;56.096;12.664;2023-03-13T14:03:29;98312.31;;;11.14;100.00
13732;BME280;6937;56.096;12.664;2023-03-13T14:06:01;98273.22;;;11.44;100.00
13732;BME280;6937;56.096;12.664;2023-03-13T14:08:30;98240.19;;;11.82;100.00
13732;BME280;6937;56.096;12.664;2023-03-13T14:13:38;98093.47;;;11.71;100.00
13732;BME280;6937;56.096;12.664;2023-03-13T14:16:20;98066.06;;;11.69;100.00
13732;BME280;6937;56.096;12.664;2023-03-13T14:18:47;98017.78;;;11.62;100.00
13732;BME280;6937;56.096;12.664;2023-03-13T14:21:12;97981.00;;;11.64;100.00
13732;BME280;6937;56.096;12.664;2023-03-13T14:23:40;97950.94;;;11.62;100.00
13732;BME280;6937;56.096;12.664;2023-03-13T14:26:28;97914.75;;;11.67;100.00
13732;BME280;6937;56.096;12.664;2023-03-13T14:28:56;97879.47;;;11.71;100.00
13732;BME280;6937;56.096;12.664;2023-03-13T14:31:33;97857.75;;;11.66;100.00
13732;BME280;6937;56.096;12.664;2023-03-13T14:34:01;97799.13;;;11.64;100.00
13732;BME280;6937;56.096;12.664;2023-03-13T14:36:27;97786.81;;;11.49;100.00
13732;BME280;6937;56.096;12.664;2023-03-13T14:38:58;97765.16;;;11.44;100.00
13732;BME280;6937;56.096;12.664;2023-03-13T14:41:41;97744.97;;;11.41;100.00
13732;BME280;6937;56.096;12.664;2023-03-13T14:44:27;97714.44;;;11.50;100.00